createdAt,value
2022-08-19T00:00:21.393Z,2.63
2022-08-19T00:02:50.341Z,3.08
2022-08-19T00:05:18.973Z,2.75
2022-08-19T00:07:46.146Z,2.95
2022-08-19T00:10:15.933Z,2.85
2022-08-19T00:12:46.816Z,3.22
2022-08-19T00:15:23.845Z,2.78
2022-08-19T00:17:50.672Z,2.63
2022-08-19T00:20:21.539Z,2.83
2022-08-19T00:22:56.592Z,3.13
2022-08-19T00:25:30.137Z,3.75
2022-08-19T00:27:57.942Z,3.58
2022-08-19T00:30:24.767Z,3.25
2022-08-19T00:32:51.774Z,3.15
2022-08-19T00:35:19.568Z,3.08
2022-08-19T00:37:48.874Z,2.80
2022-08-19T00:40:18.156Z,2.58
2022-08-19T00:42:45.985Z,3.20
2022-08-19T00:45:17.927Z,2.60
2022-08-19T00:47:46.272Z,2.90
2022-08-19T00:50:16.364Z,3.38
2022-08-19T00:52:47.962Z,2.95
2022-08-19T00:55:20.588Z,2.85
2022-08-19T00:57:52.691Z,2.75
2022-08-19T01:00:20.937Z,2.53
2022-08-19T01:02:48.951Z,2.80
2022-08-19T01:05:21.836Z,2.53
2022-08-19T01:07:51.613Z,2.80
2022-08-19T01:10:25.596Z,3.08
2022-08-19T01:12:55.502Z,3.00
2022-08-19T01:15:27.700Z,2.30
2022-08-19T01:17:56.167Z,2.90
2022-08-19T01:20:24.464Z,3.45
2022-08-19T01:22:55.050Z,2.78
2022-08-19T01:25:27.712Z,3.00
2022-08-19T01:27:56.617Z,3.20
2022-08-19T01:30:33.193Z,3.30
2022-08-19T01:33:01.566Z,2.75
2022-08-19T01:35:30.218Z,2.42
2022-08-19T01:38:02.473Z,3.65
2022-08-19T01:40:33.726Z,2.65
2022-08-19T01:43:01.481Z,2.95
2022-08-19T01:45:30.466Z,3.05
2022-08-19T01:48:01.748Z,2.33
2022-08-19T01:50:30.836Z,2.78
2022-08-19T01:53:02.333Z,3.08
2022-08-19T01:55:40.605Z,2.63
2022-08-19T01:58:32.613Z,2.90
2022-08-19T02:00:59.727Z,2.20
2022-08-19T02:03:26.471Z,2.78
2022-08-19T02:06:03.515Z,2.78
2022-08-19T02:08:32.264Z,2.35
2022-08-19T02:10:58.929Z,2.90
2022-08-19T02:13:27.387Z,2.90
2022-08-19T02:16:00.073Z,3.08
2022-08-19T02:18:30.281Z,2.75
2022-08-19T02:21:04.821Z,2.92
2022-08-19T02:23:32.574Z,3.67
2022-08-19T02:26:00.954Z,3.90
2022-08-19T02:28:27.619Z,2.83
2022-08-19T02:30:54.326Z,3.33
2022-08-19T02:33:20.990Z,3.10
2022-08-19T02:35:51.633Z,3.70
2022-08-19T02:38:33.682Z,3.38
2022-08-19T02:41:04.359Z,3.42
2022-08-19T02:43:34.640Z,3.00
2022-08-19T02:46:01.835Z,3.72
2022-08-19T02:48:28.973Z,3.65
2022-08-19T02:50:56.667Z,3.90
2022-08-19T02:53:27.189Z,3.53
2022-08-19T02:55:54.554Z,3.50
2022-08-19T02:58:22.774Z,3.53
2022-08-19T03:00:53.457Z,3.70
2022-08-19T03:03:29.116Z,3.30
2022-08-19T03:06:14.087Z,3.58
2022-08-19T03:08:44.187Z,3.28
2022-08-19T03:11:27.693Z,3.67
2022-08-19T03:13:55.387Z,4.13
2022-08-19T03:16:25.651Z,3.72
2022-08-19T03:18:53.939Z,3.47
2022-08-19T03:21:25.001Z,3.97
2022-08-19T03:23:55.136Z,3.45
2022-08-19T03:26:22.260Z,3.58
2022-08-19T03:28:57.740Z,3.63
2022-08-19T03:31:41.556Z,3.40
2022-08-19T03:34:18.261Z,3.42
2022-08-19T03:36:46.077Z,4.38
2022-08-19T03:39:12.946Z,4.25
2022-08-19T03:41:45.329Z,4.10
2022-08-19T03:44:17.743Z,3.72
2022-08-19T03:46:45.649Z,4.35
2022-08-19T03:49:14.167Z,3.88
2022-08-19T03:51:43.015Z,3.85
2022-08-19T03:54:13.927Z,3.85
2022-08-19T03:56:43.548Z,4.22
2022-08-19T03:59:15.257Z,4.10
2022-08-19T04:01:42.314Z,4.00
2022-08-19T04:04:09.915Z,4.70
2022-08-19T04:06:40.203Z,4.20
2022-08-19T04:09:11.363Z,3.90
2022-08-19T04:11:43.714Z,3.63
2022-08-19T04:14:15.211Z,4.43
2022-08-19T04:16:44.750Z,4.43
2022-08-19T04:19:12.238Z,5.35
2022-08-19T04:21:39.957Z,4.15
2022-08-19T04:24:08.198Z,5.25
2022-08-19T04:26:37.780Z,4.85
2022-08-19T04:29:16.506Z,6.60
2022-08-19T04:31:45.321Z,7.32
2022-08-19T04:34:14.410Z,7.15
2022-08-19T04:36:43.330Z,7.00
2022-08-19T04:39:14.998Z,7.22
2022-08-19T04:41:56.949Z,6.70
2022-08-19T04:44:24.134Z,6.65
2022-08-19T04:46:52.083Z,6.65
2022-08-19T04:49:23.989Z,7.03
2022-08-19T04:51:54.927Z,7.22
2022-08-19T04:54:37.883Z,10.23
2022-08-19T04:57:09.540Z,11.52
2022-08-19T04:59:37.359Z,12.77
2022-08-19T05:02:05.026Z,11.60
2022-08-19T05:04:33.106Z,11.27
2022-08-19T05:07:03.341Z,11.88
2022-08-19T05:12:26.758Z,12.73
2022-08-19T05:14:59.985Z,14.32
2022-08-19T05:17:38.350Z,14.52
2022-08-19T05:20:24.009Z,14.10
2022-08-19T05:22:50.782Z,16.08
2022-08-19T05:25:21.438Z,14.52
2022-08-19T05:27:49.373Z,12.88
2022-08-19T05:30:16.838Z,13.73
2022-08-19T05:33:05.055Z,13.25
2022-08-19T05:35:34.696Z,11.73
2022-08-19T05:44:21.042Z,11.52
2022-08-19T05:46:49.294Z,11.23
2022-08-19T05:49:17.458Z,11.85
2022-08-19T05:51:44.064Z,14.45
2022-08-19T05:54:15.112Z,15.23
2022-08-19T05:56:42.496Z,14.20
2022-08-19T05:59:12.267Z,16.10
2022-08-19T06:01:43.920Z,13.10
2022-08-19T06:04:10.611Z,13.32
2022-08-19T06:06:38.107Z,13.65
2022-08-19T06:09:07.424Z,13.65
2022-08-19T06:11:41.312Z,13.85
2022-08-19T06:14:16.596Z,14.43
2022-08-19T06:16:44.379Z,15.73
2022-08-19T06:19:18.476Z,17.23
2022-08-19T06:21:51.611Z,18.25
2022-08-19T06:24:22.411Z,15.55
2022-08-19T06:26:49.779Z,16.40
2022-08-19T06:29:23.888Z,18.77
2022-08-19T06:31:54.970Z,19.88
2022-08-19T06:34:21.874Z,18.40
2022-08-19T06:36:52.141Z,19.08
2022-08-19T06:39:26.533Z,19.55
2022-08-19T06:41:58.939Z,19.20
2022-08-19T06:44:29.160Z,20.88
2022-08-19T06:47:00.225Z,19.70
2022-08-19T06:49:32.620Z,17.80
2022-08-19T06:52:00.515Z,18.00
2022-08-19T06:54:31.550Z,18.17
2022-08-19T06:57:04.468Z,18.27
2022-08-19T06:59:36.097Z,16.83
2022-08-19T07:02:06.563Z,18.10
2022-08-19T07:04:35.967Z,18.63
2022-08-19T07:07:20.313Z,18.58
2022-08-19T07:09:52.258Z,19.58
2022-08-19T07:12:28.419Z,19.17
2022-08-19T07:14:59.740Z,19.67
2022-08-19T07:17:26.922Z,19.88
2022-08-19T07:19:54.548Z,20.00
2022-08-19T07:22:24.362Z,19.25
2022-08-19T07:24:54.122Z,19.52
2022-08-19T07:27:24.700Z,19.98
2022-08-19T07:29:56.252Z,20.55
2022-08-19T07:32:28.139Z,19.23
2022-08-19T07:34:56.784Z,21.35
2022-08-19T07:37:32.403Z,19.75
2022-08-19T07:40:00.569Z,21.67
2022-08-19T07:42:27.731Z,21.95
2022-08-19T07:44:54.385Z,22.45
2022-08-19T07:47:49.020Z,22.33
2022-08-19T07:52:40.275Z,18.45
2022-08-19T07:55:42.351Z,21.52
2022-08-19T07:57:59.328Z,21.25
2022-08-19T08:00:27.282Z,20.73
2022-08-19T08:02:55.787Z,20.48
2022-08-19T08:05:43.017Z,22.30
2022-08-19T08:08:27.557Z,23.30
2022-08-19T08:10:56.916Z,21.80
2022-08-19T08:13:24.960Z,21.48
2022-08-19T08:15:52.216Z,23.23
2022-08-19T08:18:21.990Z,23.25
2022-08-19T08:20:57.340Z,20.45
2022-08-19T08:23:26.240Z,21.75
2022-08-19T08:25:56.007Z,22.58
2022-08-19T08:28:24.160Z,22.02
2022-08-19T08:30:52.666Z,23.73
2022-08-19T08:33:32.897Z,24.50
2022-08-19T08:36:05.755Z,23.10
2022-08-19T08:38:39.139Z,21.80
2022-08-19T08:41:15.241Z,20.90
2022-08-19T08:43:44.031Z,21.83
2022-08-19T08:46:30.700Z,20.60
2022-08-19T08:48:58.810Z,20.25
2022-08-19T08:51:39.184Z,19.23
2022-08-19T08:54:18.233Z,22.25
2022-08-19T08:56:47.051Z,19.67
2022-08-19T08:59:28.778Z,20.85
2022-08-19T09:01:55.461Z,20.98
2022-08-19T09:04:23.935Z,19.27
2022-08-19T09:07:34.837Z,20.60
2022-08-19T09:10:19.714Z,21.67
2022-08-19T09:13:02.599Z,19.67
2022-08-19T09:16:02.190Z,20.27
2022-08-19T09:18:51.227Z,22.40
2022-08-19T09:21:20.062Z,22.92
2022-08-19T09:23:56.292Z,22.00
2022-08-19T09:26:24.480Z,21.75
2022-08-19T09:29:11.522Z,23.13
2022-08-19T09:31:39.125Z,21.33
2022-08-19T09:34:06.072Z,22.63
2022-08-19T09:36:35.300Z,19.50
2022-08-19T09:39:02.493Z,18.55
2022-08-19T09:41:30.014Z,21.42
2022-08-19T09:44:00.463Z,23.08
2022-08-19T09:46:29.721Z,21.80
2022-08-19T09:49:02.958Z,19.60
2022-08-19T09:51:34.127Z,20.85
2022-08-19T09:54:06.309Z,20.00
2022-08-19T09:56:33.942Z,17.77
2022-08-19T09:59:02.452Z,19.00
2022-08-19T10:01:31.616Z,21.13
2022-08-19T10:04:01.224Z,22.08
2022-08-19T10:06:44.052Z,21.92
2022-08-19T10:09:13.430Z,20.70
2022-08-19T10:11:51.060Z,17.13
2022-08-19T10:14:23.387Z,17.73
2022-08-19T10:16:52.817Z,18.30
2022-08-19T10:19:25.777Z,17.65
2022-08-19T10:21:56.013Z,18.15
2022-08-19T10:24:28.809Z,17.75
2022-08-19T10:27:00.045Z,19.25
2022-08-19T10:29:31.959Z,18.05
2022-08-19T10:32:03.401Z,17.95
2022-08-19T10:34:32.251Z,15.43
2022-08-19T10:37:01.971Z,14.75
2022-08-19T10:39:32.914Z,13.75
2022-08-19T10:42:12.700Z,14.18
2022-08-19T10:44:39.486Z,13.20
2022-08-19T10:47:24.476Z,16.52
2022-08-19T10:50:11.691Z,15.18
2022-08-19T10:52:49.875Z,13.52
2022-08-19T10:55:35.657Z,13.05
2022-08-19T10:58:03.357Z,13.43
2022-08-19T11:00:32.065Z,13.85
2022-08-19T11:03:02.664Z,12.88
2022-08-19T11:05:29.356Z,14.32
2022-08-19T11:08:03.257Z,14.82
2022-08-19T11:13:17.285Z,14.93
2022-08-19T11:15:44.115Z,15.27
2022-08-19T11:18:13.323Z,14.93
2022-08-19T11:20:41.320Z,12.98
2022-08-19T11:23:08.527Z,13.15
2022-08-19T11:25:36.291Z,11.55
2022-08-19T11:28:03.151Z,12.00
2022-08-19T11:30:29.797Z,11.20
2022-08-19T11:32:56.713Z,12.40
2022-08-19T11:35:24.309Z,14.60
2022-08-19T11:37:50.940Z,15.68
2022-08-19T11:40:17.797Z,14.45
2022-08-19T11:42:59.824Z,13.98
2022-08-19T11:45:28.975Z,12.82
2022-08-19T11:47:58.156Z,12.20
2022-08-19T11:50:25.407Z,13.13
2022-08-19T11:52:55.567Z,12.18
2022-08-19T11:55:23.452Z,12.40
2022-08-19T11:57:50.379Z,13.05
2022-08-19T12:00:17.901Z,13.18
2022-08-19T12:02:48.288Z,13.35
2022-08-19T12:05:20.184Z,13.15
2022-08-19T12:07:55.484Z,13.80
2022-08-19T12:10:36.284Z,13.85
2022-08-19T12:13:19.050Z,13.73
2022-08-19T12:15:49.471Z,13.60
2022-08-19T12:18:56.231Z,13.07
2022-08-19T12:21:40.090Z,13.18
2022-08-19T12:24:07.452Z,13.05
2022-08-19T12:26:34.685Z,12.05
2022-08-19T12:29:23.851Z,12.05
2022-08-19T12:31:58.663Z,12.35
2022-08-19T12:34:34.659Z,11.40
2022-08-19T12:37:04.185Z,11.85
2022-08-19T12:39:32.253Z,12.30
2022-08-19T12:41:59.264Z,12.43
2022-08-19T12:44:29.362Z,13.18
2022-08-19T12:46:57.470Z,10.57
2022-08-19T12:49:35.922Z,11.77
2022-08-19T12:52:11.810Z,12.07
2022-08-19T12:54:42.449Z,12.05
2022-08-19T12:57:10.546Z,11.38
2022-08-19T12:59:38.797Z,11.35
2022-08-19T13:02:07.116Z,11.05
2022-08-19T13:04:37.347Z,10.20
2022-08-19T13:07:08.561Z,9.73
2022-08-19T13:09:35.307Z,10.27
2022-08-19T13:12:04.543Z,9.50
2022-08-19T13:14:32.531Z,9.45
2022-08-19T13:17:00.630Z,9.45
2022-08-19T13:19:27.560Z,9.40
2022-08-19T13:22:00.045Z,9.50
2022-08-19T13:24:29.449Z,9.15
2022-08-19T13:27:01.653Z,10.05
2022-08-19T13:29:43.625Z,9.43
2022-08-19T13:32:27.254Z,8.55
2022-08-19T13:34:54.132Z,9.18
2022-08-19T13:37:42.035Z,9.63
2022-08-19T13:40:13.904Z,8.98
2022-08-19T13:42:41.482Z,8.68
2022-08-19T13:45:08.868Z,8.07
2022-08-19T13:47:36.327Z,8.85
2022-08-19T13:50:05.346Z,7.85
2022-08-19T13:52:32.837Z,7.82
2022-08-19T13:54:59.624Z,9.13
2022-08-19T13:57:34.473Z,9.15
2022-08-19T14:00:02.252Z,10.43
2022-08-19T14:02:29.398Z,10.15
2022-08-19T14:04:55.990Z,9.95
2022-08-19T14:07:25.174Z,10.35
2022-08-19T14:09:51.988Z,9.60
2022-08-19T14:12:28.592Z,9.77
2022-08-19T14:14:56.038Z,9.80
2022-08-19T14:17:22.970Z,7.97
2022-08-19T14:19:53.470Z,8.40
2022-08-19T14:22:23.402Z,8.88
2022-08-19T14:24:51.179Z,8.00
2022-08-19T14:27:17.924Z,8.15
2022-08-19T14:29:45.658Z,8.63
2022-08-19T14:32:16.735Z,9.35
2022-08-19T14:34:46.691Z,9.43
2022-08-19T14:37:15.558Z,9.43
2022-08-19T14:39:42.930Z,8.45
2022-08-19T14:42:11.430Z,9.05
2022-08-19T14:44:38.862Z,9.15
2022-08-19T14:47:08.453Z,7.72
2022-08-19T14:49:42.315Z,8.00
2022-08-19T14:52:13.763Z,7.22
2022-08-19T14:54:49.976Z,8.02
2022-08-19T14:57:18.179Z,7.22
2022-08-19T14:59:45.194Z,7.65
2022-08-19T15:02:20.426Z,7.03
2022-08-19T15:05:08.325Z,7.20
2022-08-19T15:07:34.916Z,6.80
2022-08-19T15:10:10.710Z,6.45
2022-08-19T15:12:48.670Z,6.47
2022-08-19T15:15:18.411Z,5.93
2022-08-19T15:17:50.360Z,6.35
2022-08-19T15:23:11.608Z,4.90
2022-08-19T15:28:37.387Z,2.22
2022-08-19T15:31:06.634Z,1.27
2022-08-19T15:33:36.999Z,1.95
2022-08-19T15:36:06.487Z,1.90
2022-08-19T15:38:38.898Z,2.92
2022-08-19T15:41:31.199Z,3.10
2022-08-19T15:44:03.900Z,2.53
2022-08-19T15:46:34.504Z,3.00
2022-08-19T15:49:01.802Z,2.80
2022-08-19T15:51:31.376Z,2.35
2022-08-19T15:53:59.411Z,2.95
2022-08-19T15:56:47.413Z,2.08
2022-08-19T15:59:47.727Z,2.65
2022-08-19T16:02:32.215Z,2.28
2022-08-19T16:05:23.546Z,2.08
2022-08-19T16:07:53.905Z,1.73
2022-08-19T16:10:27.134Z,2.20
2022-08-19T16:12:55.606Z,2.03
2022-08-19T16:15:30.806Z,1.80
2022-08-19T16:17:58.315Z,2.60
2022-08-19T16:20:27.488Z,2.10
2022-08-19T16:22:54.774Z,1.80
2022-08-19T16:25:27.577Z,1.90
2022-08-19T16:28:07.808Z,1.65
2022-08-19T16:30:37.492Z,1.60
2022-08-19T16:33:04.385Z,1.73
2022-08-19T16:35:30.983Z,1.75
2022-08-19T16:37:58.968Z,1.83
2022-08-19T16:40:29.830Z,2.00
2022-08-19T16:42:56.563Z,1.80
2022-08-19T16:45:23.392Z,1.63
2022-08-19T16:47:50.695Z,1.40
2022-08-19T16:50:22.353Z,1.92
2022-08-19T16:52:57.630Z,1.67
2022-08-19T16:55:24.364Z,1.95
2022-08-19T16:57:51.409Z,1.50
2022-08-19T17:00:19.555Z,1.58
2022-08-19T17:02:46.195Z,2.08
2022-08-19T17:05:13.113Z,1.73
2022-08-19T17:07:39.961Z,1.60
2022-08-19T17:10:07.227Z,1.90
2022-08-19T17:12:35.098Z,1.73
2022-08-19T17:15:03.446Z,1.92
2022-08-19T17:17:31.391Z,1.50
2022-08-19T17:19:59.416Z,1.65
2022-08-19T17:22:26.164Z,1.98
2022-08-19T17:24:57.832Z,1.88
2022-08-19T17:27:31.317Z,1.80
2022-08-19T17:30:01.023Z,1.55
2022-08-19T17:32:27.786Z,1.88
2022-08-19T17:34:54.569Z,2.10
2022-08-19T17:37:21.816Z,2.30
2022-08-19T17:39:49.215Z,2.00
2022-08-19T17:42:20.264Z,2.28
2022-08-19T17:44:50.697Z,2.25
2022-08-19T17:47:19.412Z,2.15
2022-08-19T17:49:46.369Z,2.20
2022-08-19T17:52:13.021Z,2.45
2022-08-19T17:54:39.672Z,2.15
2022-08-19T17:57:06.405Z,2.30
2022-08-19T17:59:33.080Z,2.90
2022-08-19T18:02:00.144Z,2.65
2022-08-19T18:04:26.912Z,2.83
2022-08-19T18:06:57.096Z,2.72
2022-08-19T18:09:27.295Z,2.45
2022-08-19T18:11:57.130Z,3.10
2022-08-19T18:14:32.787Z,2.70
2022-08-19T18:17:05.519Z,3.17
2022-08-19T18:19:41.364Z,2.70
2022-08-19T18:22:15.610Z,2.72
2022-08-19T18:24:48.093Z,2.38
2022-08-19T18:27:14.901Z,2.35
2022-08-19T18:29:41.612Z,2.20
2022-08-19T18:32:12.722Z,2.35
2022-08-19T18:34:41.081Z,2.15
2022-08-19T18:37:07.761Z,2.83
2022-08-19T18:39:49.821Z,2.25
2022-08-19T18:42:33.338Z,2.72
2022-08-19T18:45:19.928Z,2.55
2022-08-19T18:50:28.488Z,2.22
2022-08-19T18:52:55.183Z,2.47
2022-08-19T18:55:23.560Z,2.17
2022-08-19T18:57:51.430Z,2.20
2022-08-19T19:00:19.527Z,2.30
2022-08-19T19:02:46.814Z,2.22
2022-08-19T19:05:14.779Z,2.13
2022-08-19T19:07:42.356Z,2.28
2022-08-19T19:10:09.447Z,2.30
2022-08-19T19:12:40.706Z,1.83
2022-08-19T19:15:08.467Z,2.15
2022-08-19T19:17:37.857Z,2.22
2022-08-19T19:20:05.338Z,2.45
2022-08-19T19:22:32.053Z,2.22
2022-08-19T19:24:59.498Z,2.17
2022-08-19T19:27:26.412Z,2.15
2022-08-19T19:29:53.465Z,2.35
2022-08-19T19:32:24.372Z,2.50
2022-08-19T19:34:51.094Z,2.00
2022-08-19T19:37:18.547Z,2.25
2022-08-19T19:39:48.132Z,2.47
2022-08-19T19:42:19.853Z,2.40
2022-08-19T19:44:50.308Z,2.20
2022-08-19T19:47:18.993Z,2.13
2022-08-19T19:50:12.647Z,2.40
2022-08-19T19:52:34.161Z,2.70
2022-08-19T19:55:01.589Z,2.90
2022-08-19T19:57:30.313Z,2.58
2022-08-19T19:59:57.305Z,2.53
2022-08-19T20:02:25.187Z,2.53
2022-08-19T20:04:52.175Z,2.65
2022-08-19T20:07:39.893Z,2.70
2022-08-19T20:10:06.866Z,3.17
2022-08-19T20:12:33.608Z,2.67
2022-08-19T20:15:00.221Z,3.22
2022-08-19T20:17:26.931Z,2.80
2022-08-19T20:19:54.237Z,3.50
2022-08-19T20:22:20.858Z,3.70
2022-08-19T20:24:48.449Z,3.30
2022-08-19T20:27:15.047Z,3.45
2022-08-19T20:29:44.571Z,3.83
2022-08-19T20:32:12.884Z,3.63
2022-08-19T20:34:40.593Z,4.03
2022-08-19T20:37:09.433Z,4.60
2022-08-19T20:39:36.471Z,4.47
2022-08-19T20:42:04.523Z,4.97
2022-08-19T20:44:31.224Z,3.60
2022-08-19T20:47:02.968Z,4.68
2022-08-19T20:49:30.450Z,4.35
2022-08-19T20:51:58.433Z,5.55
2022-08-19T20:54:26.499Z,5.45
2022-08-19T20:56:54.376Z,5.85
2022-08-19T20:59:21.935Z,5.18
2022-08-19T21:01:49.018Z,5.32
2022-08-19T21:04:15.686Z,5.82
2022-08-19T21:06:45.218Z,6.05
2022-08-19T21:09:13.586Z,6.00
2022-08-19T21:11:40.429Z,6.30
2022-08-19T21:14:07.373Z,6.60
2022-08-19T21:16:34.130Z,6.13
2022-08-19T21:19:01.547Z,6.30
2022-08-19T21:21:28.617Z,5.57
2022-08-19T21:23:55.226Z,5.07
2022-08-19T21:26:21.931Z,4.85
2022-08-19T21:28:48.680Z,5.30
2022-08-19T21:31:16.445Z,5.63
2022-08-19T21:33:43.038Z,5.00
2022-08-19T21:36:09.785Z,4.95
2022-08-19T21:38:37.789Z,5.15
2022-08-19T21:41:06.581Z,6.10
2022-08-19T21:43:35.187Z,7.10
2022-08-19T21:46:01.961Z,6.85
2022-08-19T21:48:28.928Z,6.75
2022-08-19T21:50:56.403Z,8.90
2022-08-19T21:53:23.166Z,9.15
2022-08-19T21:55:53.497Z,8.68
2022-08-19T21:58:30.042Z,9.10
2022-08-19T22:01:00.499Z,9.00
2022-08-19T22:03:27.722Z,8.90
2022-08-19T22:05:54.385Z,9.27
2022-08-19T22:08:21.126Z,8.02
2022-08-19T22:10:49.702Z,8.57
2022-08-19T22:13:18.266Z,8.45
2022-08-19T22:15:46.016Z,8.50
2022-08-19T22:18:13.796Z,7.82
2022-08-19T22:20:40.767Z,9.23
2022-08-19T22:23:11.109Z,8.90
2022-08-19T22:25:44.784Z,7.55
2022-08-19T22:28:14.728Z,8.77
2022-08-19T22:30:47.152Z,8.35
2022-08-19T22:33:18.990Z,8.65
2022-08-19T22:35:47.023Z,8.50
2022-08-19T22:38:14.876Z,9.13
2022-08-19T22:40:46.070Z,8.68
2022-08-19T22:43:17.493Z,8.23
2022-08-19T22:45:44.978Z,8.65
2022-08-19T22:48:14.958Z,7.88
2022-08-19T22:50:44.098Z,6.55
2022-08-19T22:53:10.954Z,7.25
2022-08-19T22:55:38.705Z,6.85
2022-08-19T22:58:06.093Z,6.38
2022-08-19T23:00:33.102Z,7.00
2022-08-19T23:02:59.853Z,6.95
2022-08-19T23:05:29.026Z,6.93
2022-08-19T23:07:57.948Z,6.60
2022-08-19T23:10:29.010Z,6.68
2022-08-19T23:12:59.135Z,5.95
2022-08-19T23:15:29.491Z,7.35
2022-08-19T23:17:59.416Z,7.22
2022-08-19T23:20:29.947Z,7.80
2022-08-19T23:22:57.370Z,7.32
2022-08-19T23:25:27.395Z,7.93
2022-08-19T23:28:09.920Z,7.38
2022-08-19T23:30:39.715Z,7.38
2022-08-19T23:33:15.012Z,7.40
2022-08-19T23:35:41.742Z,8.13
2022-08-19T23:38:09.411Z,7.80
2022-08-19T23:40:37.433Z,8.48
2022-08-19T23:43:08.252Z,7.38
2022-08-19T23:45:41.207Z,7.40
2022-08-19T23:48:18.465Z,7.63
2022-08-19T23:50:45.980Z,8.55
2022-08-19T23:53:14.167Z,7.88
2022-08-19T23:55:44.597Z,8.23
2022-08-19T23:58:12.246Z,8.02
